createdAt,value
2022-09-13T00:00:07.630Z,12.30
2022-09-13T00:02:34.627Z,12.30
2022-09-13T00:05:01.664Z,12.20
2022-09-13T00:07:28.675Z,12.20
2022-09-13T00:09:55.763Z,12.20
2022-09-13T00:12:26.665Z,12.20
2022-09-13T00:14:53.749Z,12.20
2022-09-13T00:17:23.109Z,12.20
2022-09-13T00:19:50.048Z,12.20
2022-09-13T00:22:17.203Z,12.10
2022-09-13T00:24:46.592Z,12.10
2022-09-13T00:27:13.807Z,12.00
2022-09-13T00:29:43.692Z,12.00
2022-09-13T00:32:10.871Z,12.00
2022-09-13T00:34:38.309Z,12.00
2022-09-13T00:37:09.157Z,11.90
2022-09-13T00:39:36.526Z,12.00
2022-09-13T00:42:03.788Z,12.00
2022-09-13T00:44:55.466Z,11.90
2022-09-13T00:47:34.983Z,12.00
2022-09-13T00:50:10.087Z,12.00
2022-09-13T00:52:39.011Z,12.00
2022-09-13T00:55:12.839Z,12.10
2022-09-13T00:57:41.265Z,12.10
2022-09-13T01:00:18.159Z,12.10
2022-09-13T01:02:50.804Z,12.10
2022-09-13T01:05:22.622Z,12.10
2022-09-13T01:07:50.307Z,12.00
2022-09-13T01:10:18.045Z,12.00
2022-09-13T01:12:55.108Z,12.00
2022-09-13T01:15:22.455Z,11.90
2022-09-13T01:17:50.743Z,11.90
2022-09-13T01:20:17.738Z,11.90
2022-09-13T01:22:53.521Z,11.80
2022-09-13T01:25:50.893Z,11.80
2022-09-13T01:28:55.697Z,11.80
2022-09-13T01:31:51.646Z,11.80
2022-09-13T01:34:27.998Z,11.80
2022-09-13T01:37:25.671Z,11.80
2022-09-13T01:40:10.070Z,11.70
2022-09-13T01:42:55.012Z,11.70
2022-09-13T01:45:35.131Z,11.70
2022-09-13T01:48:17.155Z,11.80
2022-09-13T01:50:50.835Z,11.70
2022-09-13T01:53:37.209Z,11.70
2022-09-13T01:56:31.023Z,11.70
2022-09-13T01:59:22.996Z,11.70
2022-09-13T02:02:02.747Z,11.70
2022-09-13T02:04:38.785Z,11.70
2022-09-13T02:07:16.933Z,11.60
2022-09-13T02:09:49.041Z,11.60
2022-09-13T02:12:27.887Z,11.50
2022-09-13T02:15:19.101Z,11.60
2022-09-13T02:18:09.646Z,11.50
2022-09-13T02:20:40.765Z,11.50
2022-09-13T02:23:30.286Z,11.40
2022-09-13T02:25:59.645Z,11.50
2022-09-13T02:28:36.712Z,11.40
2022-09-13T02:31:07.515Z,11.30
2022-09-13T02:33:40.593Z,11.40
2022-09-13T02:36:20.417Z,11.40
2022-09-13T02:38:59.871Z,11.40
2022-09-13T02:41:57.859Z,11.30
2022-09-13T02:44:34.428Z,11.30
2022-09-13T02:47:24.827Z,11.30
2022-09-13T02:50:22.713Z,11.30
2022-09-13T02:52:52.763Z,11.30
2022-09-13T02:55:46.514Z,11.20
2022-09-13T02:58:41.986Z,11.20
2022-09-13T03:01:09.112Z,11.30
2022-09-13T03:03:36.686Z,11.30
2022-09-13T03:06:03.830Z,11.30
2022-09-13T03:08:31.352Z,11.30
2022-09-13T03:11:25.423Z,11.30
2022-09-13T03:13:58.982Z,11.20
2022-09-13T03:16:59.635Z,11.20
2022-09-13T03:19:59.301Z,11.10
2022-09-13T03:22:43.720Z,11.10
2022-09-13T03:25:30.342Z,11.10
2022-09-13T03:28:14.307Z,11.00
2022-09-13T03:30:50.070Z,11.00
2022-09-13T03:33:31.014Z,11.00
2022-09-13T03:36:22.158Z,11.00
2022-09-13T03:39:14.872Z,10.90
2022-09-13T03:41:47.224Z,10.90
2022-09-13T03:44:19.861Z,10.90
2022-09-13T03:46:54.915Z,10.80
2022-09-13T03:49:24.579Z,10.80
2022-09-13T03:51:52.998Z,10.80
2022-09-13T03:54:24.593Z,10.70
2022-09-13T03:57:15.335Z,10.70
2022-09-13T03:59:50.925Z,10.60
2022-09-13T04:02:19.382Z,10.70
2022-09-13T04:04:47.065Z,10.70
2022-09-13T04:07:17.255Z,10.70
2022-09-13T04:09:44.326Z,10.70
2022-09-13T04:12:11.393Z,10.70
2022-09-13T04:14:38.480Z,10.70
2022-09-13T04:17:06.477Z,10.70
2022-09-13T04:19:33.861Z,10.60
2022-09-13T04:22:00.844Z,10.50
2022-09-13T04:24:29.115Z,10.50
2022-09-13T04:26:57.205Z,10.50
2022-09-13T04:29:29.076Z,10.50
2022-09-13T04:31:56.249Z,10.60
2022-09-13T04:34:23.721Z,10.60
2022-09-13T04:36:52.656Z,10.60
2022-09-13T04:39:20.937Z,10.50
2022-09-13T04:41:49.125Z,10.50
2022-09-13T04:44:17.831Z,10.50
2022-09-13T04:46:48.482Z,10.50
2022-09-13T04:49:17.138Z,10.50
2022-09-13T04:51:44.680Z,10.40
2022-09-13T04:54:15.474Z,10.40
2022-09-13T04:56:44.436Z,10.40
2022-09-13T04:59:12.100Z,10.40
2022-09-13T05:01:39.676Z,10.40
2022-09-13T05:04:07.621Z,10.40
2022-09-13T05:06:34.970Z,10.50
2022-09-13T05:09:02.869Z,10.50
2022-09-13T05:11:29.947Z,10.50
2022-09-13T05:13:59.074Z,10.70
2022-09-13T05:16:28.660Z,10.70
2022-09-13T05:18:56.005Z,10.80
2022-09-13T05:21:26.525Z,10.90
2022-09-13T05:23:55.275Z,11.00
2022-09-13T05:26:24.389Z,11.00
2022-09-13T05:28:51.568Z,11.00
2022-09-13T05:31:21.781Z,11.10
2022-09-13T05:33:54.422Z,11.20
2022-09-13T05:36:21.543Z,11.40
2022-09-13T05:38:49.158Z,11.60
2022-09-13T05:41:16.259Z,11.80
2022-09-13T05:43:43.430Z,12.00
2022-09-13T05:46:16.677Z,12.30
2022-09-13T05:48:44.431Z,12.60
2022-09-13T05:51:14.516Z,12.90
2022-09-13T05:53:44.109Z,13.20
2022-09-13T05:56:17.713Z,13.50
2022-09-13T05:58:48.635Z,13.90
2022-09-13T06:01:18.411Z,15.00
2022-09-13T06:03:48.840Z,16.10
2022-09-13T06:06:16.806Z,16.10
2022-09-13T06:08:44.676Z,15.90
2022-09-13T06:11:13.582Z,15.60
2022-09-13T06:13:41.429Z,15.20
2022-09-13T06:16:10.689Z,14.90
2022-09-13T06:18:38.038Z,14.80
2022-09-13T06:21:22.933Z,14.60
2022-09-13T06:23:57.235Z,14.60
2022-09-13T06:26:26.926Z,14.70
2022-09-13T06:28:56.083Z,14.90
2022-09-13T06:31:25.184Z,15.40
2022-09-13T06:34:00.737Z,15.80
2022-09-13T06:36:27.792Z,16.10
2022-09-13T06:38:54.863Z,16.50
2022-09-13T06:41:25.288Z,16.80
2022-09-13T06:43:57.931Z,17.20
2022-09-13T06:46:26.832Z,17.60
2022-09-13T06:48:54.727Z,17.80
2022-09-13T06:51:24.055Z,17.90
2022-09-13T06:53:52.947Z,18.00
2022-09-13T06:56:22.318Z,18.10
2022-09-13T06:58:51.691Z,18.70
2022-09-13T07:01:21.018Z,19.70
2022-09-13T07:03:50.908Z,20.20
2022-09-13T07:06:23.041Z,20.00
2022-09-13T07:08:52.456Z,19.70
2022-09-13T07:11:21.934Z,19.60
2022-09-13T07:13:55.790Z,19.60
2022-09-13T07:16:27.086Z,19.70
2022-09-13T07:18:57.182Z,19.70
2022-09-13T07:21:25.168Z,20.30
2022-09-13T07:23:53.929Z,20.70
2022-09-13T07:26:21.300Z,20.60
2022-09-13T07:28:52.554Z,20.10
2022-09-13T07:31:25.213Z,19.40
2022-09-13T07:33:58.036Z,19.30
2022-09-13T07:36:25.897Z,19.60
2022-09-13T07:38:54.625Z,20.10
2022-09-13T07:41:23.423Z,20.60
2022-09-13T07:43:53.116Z,21.10
2022-09-13T07:46:27.864Z,21.30
2022-09-13T07:48:56.605Z,21.30
2022-09-13T07:51:26.682Z,21.50
2022-09-13T07:53:57.702Z,21.50
2022-09-13T07:56:30.450Z,21.90
2022-09-13T07:59:00.987Z,22.00
2022-09-13T08:01:35.251Z,22.40
2022-09-13T08:04:08.215Z,22.80
2022-09-13T08:06:38.963Z,23.10
2022-09-13T08:09:07.795Z,23.40
2022-09-13T08:11:36.535Z,23.40
2022-09-13T08:14:05.828Z,23.60
2022-09-13T08:16:33.634Z,23.50
2022-09-13T08:19:02.986Z,23.40
2022-09-13T08:21:48.579Z,23.20
2022-09-13T08:24:21.565Z,23.50
2022-09-13T08:26:49.551Z,23.50
2022-09-13T08:29:17.493Z,23.40
2022-09-13T08:31:45.272Z,23.10
2022-09-13T08:34:15.239Z,23.00
2022-09-13T08:36:43.455Z,22.80
2022-09-13T08:39:13.852Z,22.70
2022-09-13T08:41:42.441Z,22.70
2022-09-13T08:44:12.458Z,22.90
2022-09-13T08:46:47.186Z,23.20
2022-09-13T08:49:20.105Z,23.60
2022-09-13T08:51:50.488Z,24.20
2022-09-13T08:54:18.800Z,24.80
2022-09-13T08:57:06.189Z,25.00
2022-09-13T09:00:24.755Z,25.10
2022-09-13T09:03:12.825Z,25.30
2022-09-13T09:05:49.162Z,25.20
2022-09-13T09:08:25.699Z,25.00
2022-09-13T09:10:55.671Z,24.70
2022-09-13T09:13:40.564Z,24.30
2022-09-13T09:16:33.898Z,24.00
2022-09-13T09:19:14.671Z,23.80
2022-09-13T09:21:45.054Z,23.60
2022-09-13T09:24:25.361Z,23.60
2022-09-13T09:26:57.884Z,23.60
2022-09-13T09:29:29.171Z,23.50
2022-09-13T09:32:18.870Z,23.50
2022-09-13T09:35:21.681Z,23.30
2022-09-13T09:38:19.955Z,23.20
2022-09-13T09:40:47.169Z,23.30
2022-09-13T09:43:30.023Z,23.60
2022-09-13T09:45:58.627Z,23.90
2022-09-13T09:48:31.870Z,24.40
2022-09-13T09:50:59.601Z,24.90
2022-09-13T09:53:36.995Z,25.30
2022-09-13T09:56:20.294Z,25.50
2022-09-13T09:58:47.636Z,25.60
2022-09-13T10:01:32.508Z,25.60
2022-09-13T10:04:02.675Z,25.50
2022-09-13T10:06:31.316Z,25.40
2022-09-13T10:09:08.020Z,25.20
2022-09-13T10:11:54.112Z,24.90
2022-09-13T10:14:37.303Z,24.60
2022-09-13T10:17:10.270Z,24.30
2022-09-13T10:19:39.083Z,24.10
2022-09-13T10:22:13.706Z,23.80
2022-09-13T10:24:41.133Z,23.60
2022-09-13T10:27:26.281Z,23.60
2022-09-13T10:29:59.840Z,23.60
2022-09-13T10:32:29.508Z,23.60
2022-09-13T10:35:19.558Z,23.70
2022-09-13T10:37:46.921Z,23.80
2022-09-13T10:40:20.584Z,24.10
2022-09-13T10:42:57.562Z,24.20
2022-09-13T10:45:30.769Z,24.20
2022-09-13T10:48:19.356Z,24.10
2022-09-13T10:51:01.681Z,24.00
2022-09-13T10:53:42.965Z,23.90
2022-09-13T10:56:26.402Z,23.60
2022-09-13T10:59:19.802Z,23.40
2022-09-13T11:02:22.841Z,23.40
2022-09-13T11:05:12.803Z,23.60
2022-09-13T11:08:01.948Z,24.10
2022-09-13T11:10:29.186Z,24.40
2022-09-13T11:13:11.983Z,24.90
2022-09-13T11:15:44.252Z,25.20
2022-09-13T11:18:42.811Z,25.50
2022-09-13T11:21:49.665Z,25.90
2022-09-13T11:24:32.012Z,26.30
2022-09-13T11:27:17.798Z,26.50
2022-09-13T11:30:12.052Z,27.00
2022-09-13T11:32:50.316Z,27.70
2022-09-13T11:35:29.581Z,28.30
2022-09-13T11:38:15.321Z,28.60
2022-09-13T11:41:01.902Z,28.60
2022-09-13T11:43:48.650Z,28.20
2022-09-13T11:46:31.966Z,27.80
2022-09-13T11:49:10.920Z,27.60
2022-09-13T11:52:08.801Z,27.50
2022-09-13T11:55:00.107Z,27.60
2022-09-13T11:57:35.972Z,27.80
2022-09-13T12:00:15.880Z,28.00
2022-09-13T12:02:52.248Z,28.00
2022-09-13T12:05:25.484Z,28.00
2022-09-13T12:08:03.521Z,28.10
2022-09-13T12:11:05.513Z,28.10
2022-09-13T12:13:46.599Z,28.00
2022-09-13T12:16:20.174Z,28.00
2022-09-13T12:18:51.073Z,28.00
2022-09-13T12:21:24.170Z,28.10
2022-09-13T12:24:22.134Z,28.30
2022-09-13T12:27:10.750Z,28.50
2022-09-13T12:30:02.213Z,28.80
2022-09-13T12:32:29.447Z,28.80
2022-09-13T12:35:18.417Z,28.90
2022-09-13T12:38:00.300Z,28.90
2022-09-13T12:40:51.632Z,28.90
2022-09-13T12:43:55.412Z,28.50
2022-09-13T12:46:44.002Z,27.90
2022-09-13T12:49:33.783Z,27.50
2022-09-13T12:52:23.674Z,27.30
2022-09-13T12:55:29.426Z,26.90
2022-09-13T12:58:29.458Z,26.60
2022-09-13T13:01:20.089Z,26.30
2022-09-13T13:04:01.344Z,26.30
2022-09-13T13:06:37.295Z,26.20
2022-09-13T13:09:29.034Z,26.20
2022-09-13T13:11:58.588Z,26.10
2022-09-13T13:14:55.389Z,26.00
2022-09-13T13:17:45.251Z,25.90
2022-09-13T13:20:41.203Z,25.70
2022-09-13T13:23:33.049Z,25.60
2022-09-13T13:26:10.271Z,25.30
2022-09-13T13:28:47.846Z,25.10
2022-09-13T13:31:30.421Z,24.80
2022-09-13T13:34:06.048Z,24.60
2022-09-13T13:36:45.589Z,24.40
2022-09-13T13:39:25.074Z,24.30
2022-09-13T13:41:59.112Z,24.20
2022-09-13T13:44:26.099Z,24.20
2022-09-13T13:47:09.927Z,24.10
2022-09-13T13:49:40.448Z,24.00
2022-09-13T13:52:15.981Z,23.90
2022-09-13T13:54:45.542Z,23.80
2022-09-13T13:57:34.588Z,23.60
2022-09-13T14:00:23.627Z,23.50
2022-09-13T14:02:50.602Z,23.40
2022-09-13T14:05:50.210Z,23.30
2022-09-13T14:08:23.806Z,23.30
2022-09-13T14:10:55.960Z,23.30
2022-09-13T14:13:50.757Z,23.30
2022-09-13T14:16:52.145Z,23.30
2022-09-13T14:19:38.630Z,23.30
2022-09-13T14:22:07.093Z,23.30
2022-09-13T14:24:39.314Z,23.30
2022-09-13T14:27:09.505Z,23.10
2022-09-13T14:29:36.923Z,23.00
2022-09-13T14:32:08.597Z,22.90
2022-09-13T14:34:38.831Z,22.90
2022-09-13T14:37:19.648Z,22.90
2022-09-13T14:40:02.125Z,22.80
2022-09-13T14:42:43.551Z,22.70
2022-09-13T14:45:19.107Z,22.70
2022-09-13T14:47:48.923Z,22.60
2022-09-13T14:50:24.004Z,22.50
2022-09-13T14:53:06.550Z,22.50
2022-09-13T14:55:50.035Z,22.40
2022-09-13T14:58:29.704Z,22.40
2022-09-13T15:01:02.465Z,22.30
2022-09-13T15:03:30.072Z,22.30
2022-09-13T15:06:00.168Z,22.30
2022-09-13T15:08:32.969Z,22.30
2022-09-13T15:11:02.181Z,22.30
2022-09-13T15:13:29.745Z,22.40
2022-09-13T15:15:56.816Z,22.40
2022-09-13T15:18:36.464Z,22.50
2022-09-13T15:21:06.642Z,22.60
2022-09-13T15:23:43.312Z,22.90
2022-09-13T15:26:31.693Z,23.10
2022-09-13T15:29:04.287Z,23.40
2022-09-13T15:31:36.116Z,23.50
2022-09-13T15:34:19.559Z,23.70
2022-09-13T15:37:06.365Z,23.90
2022-09-13T15:40:16.685Z,24.00
2022-09-13T15:42:51.559Z,24.20
2022-09-13T15:45:20.663Z,24.30
2022-09-13T15:47:54.009Z,24.30
2022-09-13T15:50:31.831Z,24.20
2022-09-13T15:53:00.617Z,24.10
2022-09-13T15:55:29.486Z,24.00
2022-09-13T15:57:57.618Z,23.80
2022-09-13T16:00:28.802Z,23.70
2022-09-13T16:02:56.320Z,23.50
2022-09-13T16:05:24.046Z,23.40
2022-09-13T16:07:52.036Z,23.30
2022-09-13T16:10:22.387Z,23.20
2022-09-13T16:12:50.447Z,23.10
2022-09-13T16:15:18.522Z,23.10
2022-09-13T16:17:55.150Z,23.10
2022-09-13T16:20:22.651Z,23.00
2022-09-13T16:22:50.263Z,23.00
2022-09-13T16:25:18.205Z,23.00
2022-09-13T16:27:46.295Z,22.90
2022-09-13T16:30:15.567Z,22.80
2022-09-13T16:32:43.174Z,22.80
2022-09-13T16:35:12.455Z,22.70
2022-09-13T16:37:41.532Z,22.60
2022-09-13T16:40:10.676Z,22.50
2022-09-13T16:42:38.296Z,22.40
2022-09-13T16:45:06.396Z,22.20
2022-09-13T16:47:33.732Z,22.10
2022-09-13T16:50:01.403Z,22.00
2022-09-13T16:52:29.399Z,21.90
2022-09-13T16:54:57.782Z,21.80
2022-09-13T16:57:26.808Z,21.70
2022-09-13T16:59:57.155Z,21.60
2022-09-13T17:02:25.550Z,21.50
2022-09-13T17:04:53.575Z,21.40
2022-09-13T17:07:20.830Z,21.30
2022-09-13T17:09:48.335Z,21.30
2022-09-13T17:12:16.378Z,21.10
2022-09-13T17:14:45.820Z,21.10
2022-09-13T17:17:15.896Z,21.00
2022-09-13T17:19:44.734Z,21.00
2022-09-13T17:22:12.600Z,20.90
2022-09-13T17:24:42.147Z,20.80
2022-09-13T17:27:09.446Z,20.80
2022-09-13T17:29:37.510Z,20.80
2022-09-13T17:32:06.142Z,20.80
2022-09-13T17:34:37.133Z,20.70
2022-09-13T17:37:06.067Z,20.70
2022-09-13T17:39:36.316Z,20.70
2022-09-13T17:42:04.249Z,20.60
2022-09-13T17:44:31.294Z,20.50
2022-09-13T17:46:58.551Z,20.40
2022-09-13T17:49:26.215Z,20.30
2022-09-13T17:51:54.785Z,20.20
2022-09-13T17:54:23.309Z,20.20
2022-09-13T17:56:51.572Z,20.10
2022-09-13T17:59:21.175Z,20.00
2022-09-13T18:01:51.234Z,20.00
2022-09-13T18:04:20.589Z,19.90
2022-09-13T18:06:50.663Z,19.90
2022-09-13T18:09:17.604Z,19.90
2022-09-13T18:11:44.998Z,19.80
2022-09-13T18:14:14.298Z,19.80
2022-09-13T18:16:42.499Z,19.80
2022-09-13T18:19:10.298Z,19.70
2022-09-13T18:21:37.427Z,19.70
2022-09-13T18:24:06.921Z,19.70
2022-09-13T18:26:34.786Z,19.70
2022-09-13T18:29:05.712Z,19.60
2022-09-13T18:31:34.742Z,19.60
2022-09-13T18:34:05.200Z,19.50
2022-09-13T18:36:33.816Z,19.50
2022-09-13T18:39:03.887Z,19.40
2022-09-13T18:41:34.316Z,19.40
2022-09-13T18:44:01.540Z,19.30
2022-09-13T18:46:32.057Z,19.30
2022-09-13T18:49:00.834Z,19.20
2022-09-13T18:51:36.597Z,19.20
2022-09-13T18:54:05.915Z,19.20
2022-09-13T18:56:34.020Z,19.20
2022-09-13T18:59:03.613Z,19.20
2022-09-13T19:01:33.393Z,19.10
2022-09-13T19:04:06.933Z,19.10
2022-09-13T19:06:37.171Z,19.00
2022-09-13T19:09:06.324Z,18.90
2022-09-13T19:11:46.326Z,18.80
2022-09-13T19:14:16.872Z,18.70
2022-09-13T19:16:44.919Z,18.60
2022-09-13T19:19:12.891Z,18.50
2022-09-13T19:21:41.007Z,18.50
2022-09-13T19:24:18.112Z,18.40
2022-09-13T19:26:49.016Z,18.40
2022-09-13T19:29:19.391Z,18.30
2022-09-13T19:31:49.017Z,18.30
2022-09-13T19:34:18.146Z,18.30
2022-09-13T19:36:45.840Z,18.30
2022-09-13T19:39:13.475Z,18.30
2022-09-13T19:41:41.510Z,18.20
2022-09-13T19:44:10.464Z,18.20
2022-09-13T19:46:40.098Z,18.10
2022-09-13T19:49:11.907Z,18.10
2022-09-13T19:51:41.468Z,18.00
2022-09-13T19:54:12.173Z,18.00
2022-09-13T19:56:43.075Z,18.00
2022-09-13T19:59:13.065Z,18.00
2022-09-13T20:01:42.759Z,18.00
2022-09-13T20:04:14.907Z,18.00
2022-09-13T20:06:47.771Z,17.90
2022-09-13T20:09:17.153Z,18.00
2022-09-13T20:11:48.860Z,17.90
2022-09-13T20:14:18.253Z,17.80
2022-09-13T20:16:45.897Z,17.80
2022-09-13T20:22:08.625Z,17.70
2022-09-13T20:24:36.123Z,17.70
2022-09-13T20:27:03.133Z,17.70
2022-09-13T20:29:31.820Z,17.70
2022-09-13T20:32:00.471Z,17.70
2022-09-13T20:34:28.289Z,17.70
2022-09-13T20:36:56.147Z,17.70
2022-09-13T20:39:23.818Z,17.60
2022-09-13T20:41:52.123Z,17.60
2022-09-13T20:44:19.617Z,17.50
2022-09-13T20:46:47.129Z,17.50
2022-09-13T20:49:14.504Z,17.40
2022-09-13T20:51:42.126Z,17.40
2022-09-13T20:54:12.661Z,17.40
2022-09-13T20:56:40.534Z,17.40
2022-09-13T20:59:07.790Z,17.30
2022-09-13T21:01:35.385Z,17.30
2022-09-13T21:04:03.774Z,17.30
2022-09-13T21:06:37.812Z,17.40
2022-09-13T21:09:04.910Z,17.40
2022-09-13T21:11:35.202Z,17.40
2022-09-13T21:14:07.541Z,17.40
2022-09-13T21:16:39.343Z,17.30
2022-09-13T21:19:07.178Z,17.30
2022-09-13T21:21:38.502Z,17.30
2022-09-13T21:24:09.879Z,17.30
2022-09-13T21:26:39.788Z,17.30
2022-09-13T21:29:06.825Z,17.30
2022-09-13T21:31:34.092Z,17.30
2022-09-13T21:34:07.074Z,17.30
2022-09-13T21:36:35.208Z,17.30
2022-09-13T21:39:03.638Z,17.30
2022-09-13T21:41:31.416Z,17.30
2022-09-13T21:43:58.797Z,17.30
2022-09-13T21:46:28.096Z,17.30
2022-09-13T21:48:57.767Z,17.30
2022-09-13T21:51:29.731Z,17.20
2022-09-13T21:53:59.320Z,17.20
2022-09-13T21:56:29.090Z,17.20
2022-09-13T21:58:58.899Z,17.20
2022-09-13T22:01:29.059Z,17.10
2022-09-13T22:03:57.403Z,17.10
2022-09-13T22:06:25.227Z,17.10
2022-09-13T22:08:54.586Z,17.10
2022-09-13T22:11:24.753Z,17.00
2022-09-13T22:13:52.149Z,17.10
2022-09-13T22:16:25.458Z,17.10
2022-09-13T22:18:55.007Z,17.10
2022-09-13T22:21:26.149Z,17.10
2022-09-13T22:23:53.642Z,17.10
2022-09-13T22:26:24.533Z,17.10
2022-09-13T22:28:53.581Z,17.10
2022-09-13T22:31:24.143Z,17.10
2022-09-13T22:33:52.889Z,17.20
2022-09-13T22:36:20.143Z,17.20
2022-09-13T22:38:54.659Z,17.20
2022-09-13T22:41:25.299Z,17.20
2022-09-13T22:43:52.815Z,17.20
2022-09-13T22:46:22.798Z,17.10
2022-09-13T22:48:50.069Z,17.10
2022-09-13T22:51:18.568Z,17.10
2022-09-13T22:53:47.669Z,17.10
2022-09-13T22:56:19.299Z,17.10
2022-09-13T22:58:48.415Z,17.10
2022-09-13T23:01:18.653Z,17.00
2022-09-13T23:03:47.303Z,17.00
2022-09-13T23:06:17.287Z,17.00
2022-09-13T23:08:44.884Z,17.10
2022-09-13T23:11:23.003Z,17.10
2022-09-13T23:13:52.365Z,17.10
2022-09-13T23:16:34.919Z,17.10
2022-09-13T23:19:02.041Z,17.10
2022-09-13T23:21:33.778Z,17.10
2022-09-13T23:24:02.819Z,17.10
2022-09-13T23:26:30.163Z,17.10
2022-09-13T23:28:59.901Z,17.10
2022-09-13T23:31:33.038Z,17.10
2022-09-13T23:34:03.064Z,17.10
2022-09-13T23:36:34.710Z,17.00
2022-09-13T23:39:05.820Z,17.00
2022-09-13T23:41:34.405Z,17.00
2022-09-13T23:44:02.961Z,17.00
2022-09-13T23:46:30.010Z,16.90
2022-09-13T23:48:57.513Z,16.90
2022-09-13T23:51:26.771Z,16.90
2022-09-13T23:53:57.263Z,16.80
2022-09-13T23:56:26.760Z,16.80
2022-09-13T23:58:55.616Z,16.80
